createdAt,value
2023-10-20T00:00:17.210Z,32.87
2023-10-20T00:05:39.480Z,29.83
2023-10-20T00:11:05.769Z,32.57
2023-10-20T00:16:28.947Z,31.13
2023-10-20T00:21:53.095Z,28.43
2023-10-20T00:27:15.764Z,28.20
2023-10-20T00:32:41.767Z,30.43
2023-10-20T00:38:04.644Z,26.50
2023-10-20T00:51:20.481Z,27.90
2023-10-20T00:56:43.653Z,26.43
2023-10-20T01:02:06.199Z,27.83
2023-10-20T01:07:28.727Z,24.27
2023-10-20T01:12:51.215Z,24.00
2023-10-20T01:18:14.688Z,22.03
2023-10-20T01:23:39.085Z,22.43
2023-10-20T01:29:06.904Z,16.63
2023-10-20T01:34:29.505Z,17.23
2023-10-20T01:39:51.849Z,19.23
2023-10-20T01:45:14.504Z,15.03
2023-10-20T01:50:36.832Z,16.87
2023-10-20T01:55:59.504Z,17.60
2023-10-20T02:01:24.418Z,14.23
2023-10-20T02:06:47.154Z,12.73
2023-10-20T02:12:11.571Z,9.50
2023-10-20T02:17:34.220Z,9.57
2023-10-20T02:22:56.519Z,8.97
2023-10-20T02:28:18.767Z,6.90
2023-10-20T02:33:41.489Z,6.70
2023-10-20T02:39:04.151Z,6.90
2023-10-20T02:44:28.811Z,5.57
2023-10-20T02:49:56.774Z,5.20
2023-10-20T02:55:19.250Z,6.30
2023-10-20T03:00:46.424Z,8.43
2023-10-20T03:06:09.716Z,6.40
2023-10-20T03:11:32.416Z,7.00
2023-10-20T03:16:55.014Z,6.03
2023-10-20T03:22:17.333Z,8.93
2023-10-20T03:27:39.594Z,7.80
2023-10-20T03:33:01.799Z,11.83
2023-10-20T03:38:24.951Z,8.47
2023-10-20T03:43:48.784Z,9.50
2023-10-20T03:49:11.214Z,10.67
2023-10-20T03:54:35.018Z,8.03
2023-10-20T03:59:58.175Z,9.33
2023-10-20T04:05:20.990Z,9.07
2023-10-20T04:10:43.808Z,8.73
2023-10-20T04:16:18.342Z,8.73
2023-10-20T04:21:42.043Z,9.50
2023-10-20T04:27:06.101Z,10.00
2023-10-20T04:32:47.991Z,8.67
2023-10-20T04:38:28.853Z,10.10
2023-10-20T04:44:10.084Z,9.03
2023-10-20T04:49:35.360Z,13.40
2023-10-20T04:54:57.863Z,11.23
2023-10-20T05:00:21.543Z,11.80
2023-10-20T05:05:59.770Z,12.40
2023-10-20T05:11:22.083Z,12.50
2023-10-20T05:16:44.649Z,14.53
2023-10-20T05:22:06.851Z,13.73
2023-10-20T05:27:29.332Z,11.97
2023-10-20T05:32:51.866Z,12.60
2023-10-20T05:38:14.516Z,13.77
2023-10-20T05:43:37.030Z,16.70
2023-10-20T05:48:59.469Z,13.10
2023-10-20T05:54:21.866Z,14.87
2023-10-20T05:59:44.347Z,17.30
2023-10-20T06:05:08.589Z,18.27
2023-10-20T06:10:31.603Z,14.50
2023-10-20T06:15:54.276Z,11.63
2023-10-20T06:21:20.522Z,15.43
2023-10-20T06:26:43.175Z,14.57
2023-10-20T06:32:41.445Z,11.93
2023-10-20T06:38:09.781Z,13.50
2023-10-20T06:43:32.090Z,18.93
2023-10-20T06:48:54.290Z,14.87
2023-10-20T06:54:17.856Z,13.83
2023-10-20T06:59:40.510Z,13.07
2023-10-20T07:05:03.112Z,19.47
2023-10-20T07:10:25.936Z,13.87
2023-10-20T07:15:53.566Z,16.93
2023-10-20T07:21:16.060Z,34.03
2023-10-20T07:26:38.378Z,16.90
2023-10-20T07:32:01.046Z,12.60
2023-10-20T07:37:23.454Z,11.30
2023-10-20T07:42:47.841Z,12.50
2023-10-20T07:48:12.130Z,10.47
2023-10-20T07:53:34.831Z,11.47
2023-10-20T07:58:57.618Z,10.17
2023-10-20T08:04:20.115Z,10.47
2023-10-20T08:09:42.992Z,11.60
2023-10-20T08:15:05.879Z,12.87
2023-10-20T08:20:28.227Z,10.03
2023-10-20T08:25:50.762Z,11.60
2023-10-20T08:31:20.052Z,11.57
2023-10-20T08:36:42.634Z,10.87
2023-10-20T08:42:20.496Z,12.87
2023-10-20T08:47:43.976Z,11.10
2023-10-20T08:53:08.017Z,11.77
2023-10-20T08:58:31.234Z,15.13
2023-10-20T09:03:56.361Z,12.00
2023-10-20T09:09:20.526Z,14.70
2023-10-20T09:14:43.077Z,12.27
2023-10-20T09:20:15.508Z,10.33
2023-10-20T09:25:38.374Z,10.83
2023-10-20T09:31:01.554Z,11.37
2023-10-20T09:36:24.941Z,12.63
2023-10-20T09:41:52.019Z,10.80
2023-10-20T09:47:20.922Z,12.33
2023-10-20T09:52:43.973Z,9.80
2023-10-20T09:58:06.526Z,6.90
2023-10-20T10:03:39.344Z,7.60
2023-10-20T10:09:05.286Z,9.60
2023-10-20T10:14:28.876Z,6.53
2023-10-20T10:19:52.351Z,6.37
2023-10-20T10:25:15.319Z,5.60
2023-10-20T10:30:39.209Z,7.27
2023-10-20T10:36:11.569Z,6.27
2023-10-20T10:41:35.582Z,7.00
2023-10-20T10:46:59.221Z,6.23
2023-10-20T10:52:22.535Z,4.83
2023-10-20T10:57:45.167Z,6.00
2023-10-20T11:03:09.067Z,5.40
2023-10-20T11:08:32.537Z,5.27
2023-10-20T11:13:57.199Z,4.57
2023-10-20T11:19:19.894Z,6.70
2023-10-20T11:24:42.262Z,5.60
2023-10-20T11:30:07.772Z,4.57
2023-10-20T11:35:30.428Z,5.43
2023-10-20T11:40:53.019Z,4.17
2023-10-20T11:46:15.510Z,4.60
2023-10-20T11:51:41.279Z,6.27
2023-10-20T11:57:03.999Z,4.47
2023-10-20T12:02:26.654Z,4.47
2023-10-20T12:07:51.829Z,3.70
2023-10-20T12:13:14.536Z,4.10
2023-10-20T12:18:37.263Z,2.80
2023-10-20T12:23:59.917Z,6.43
2023-10-20T12:29:25.668Z,4.53
2023-10-20T12:34:48.123Z,3.00
2023-10-20T12:40:10.541Z,4.53
2023-10-20T12:45:33.997Z,2.30
2023-10-20T12:50:58.309Z,2.10
2023-10-20T12:56:21.068Z,2.40
2023-10-20T13:01:43.798Z,2.10
2023-10-20T13:07:06.414Z,2.20
2023-10-20T13:12:28.662Z,2.20
2023-10-20T13:17:50.977Z,2.63
2023-10-20T13:23:14.037Z,1.70
2023-10-20T13:28:37.989Z,5.63
2023-10-20T13:34:01.089Z,1.83
2023-10-20T13:44:50.652Z,1.63
2023-10-20T13:50:13.692Z,2.33
2023-10-20T13:55:36.311Z,1.93
2023-10-20T14:00:58.719Z,1.63
2023-10-20T14:06:21.221Z,1.90
2023-10-20T14:11:43.628Z,1.60
2023-10-20T14:17:08.495Z,2.27
2023-10-20T14:22:31.728Z,1.77
2023-10-20T14:27:56.314Z,1.73
2023-10-20T14:33:18.715Z,1.60
2023-10-20T14:38:41.455Z,1.67
2023-10-20T14:44:04.656Z,5.57
2023-10-20T14:49:26.941Z,4.10
2023-10-20T14:54:49.221Z,1.90
2023-10-20T15:00:12.375Z,3.13
2023-10-20T15:05:39.021Z,2.20
2023-10-20T15:11:09.277Z,3.03
2023-10-20T15:16:31.756Z,1.97
2023-10-20T15:21:54.061Z,1.57
2023-10-20T15:27:18.975Z,1.33
2023-10-20T15:32:42.721Z,3.03
2023-10-20T15:38:05.405Z,1.93
2023-10-20T15:43:28.381Z,1.97
2023-10-20T15:48:51.158Z,2.70
2023-10-20T15:54:18.874Z,1.77
2023-10-20T15:59:44.395Z,1.70
2023-10-20T16:05:07.114Z,1.80
2023-10-20T16:10:29.975Z,1.60
2023-10-20T16:15:52.427Z,2.53
2023-10-20T16:21:15.994Z,1.80
2023-10-20T16:26:40.155Z,1.77
2023-10-20T16:32:02.699Z,3.20
2023-10-20T16:37:25.117Z,2.80
2023-10-20T16:42:48.102Z,2.10
2023-10-20T16:48:11.164Z,1.93
2023-10-20T16:53:34.018Z,2.13
2023-10-20T16:58:56.182Z,5.27
2023-10-20T17:04:18.594Z,2.77
2023-10-20T17:09:41.568Z,2.50
2023-10-20T17:15:05.226Z,2.17
2023-10-20T17:20:27.627Z,3.37
2023-10-20T17:25:49.838Z,5.80
2023-10-20T17:31:12.626Z,3.37
2023-10-20T17:36:35.041Z,2.73
2023-10-20T17:41:58.003Z,2.60
2023-10-20T17:47:20.582Z,3.23
2023-10-20T17:52:42.999Z,4.27
2023-10-20T17:58:05.271Z,3.17
2023-10-20T18:03:27.779Z,2.93
2023-10-20T18:08:52.620Z,3.13
2023-10-20T18:14:15.215Z,4.03
2023-10-20T18:19:37.558Z,3.07
2023-10-20T18:25:00.044Z,3.07
2023-10-20T18:30:22.297Z,6.23
2023-10-20T18:35:44.621Z,4.47
2023-10-20T18:41:17.537Z,5.03
2023-10-20T18:46:41.083Z,3.43
2023-10-20T18:52:03.754Z,3.17
2023-10-20T18:57:26.108Z,7.17
2023-10-20T19:02:48.398Z,3.90
2023-10-20T19:08:10.770Z,5.07
2023-10-20T19:13:34.957Z,5.77
2023-10-20T19:18:57.730Z,6.33
2023-10-20T19:24:20.273Z,5.90
2023-10-20T19:29:43.553Z,4.40
2023-10-20T19:35:06.720Z,9.73
2023-10-20T19:40:29.033Z,5.30
2023-10-20T19:45:53.549Z,8.17
2023-10-20T19:51:16.534Z,8.90
2023-10-20T19:56:39.085Z,10.17
2023-10-20T20:02:01.806Z,8.30
2023-10-20T20:07:24.827Z,6.73
2023-10-20T20:12:47.373Z,10.27
2023-10-20T20:18:09.859Z,9.90
2023-10-20T20:23:32.329Z,11.10
2023-10-20T20:28:54.924Z,8.53
2023-10-20T20:34:17.568Z,7.93
2023-10-20T20:39:40.255Z,11.27
2023-10-20T20:45:02.637Z,14.77
2023-10-20T20:50:33.237Z,8.90
2023-10-20T20:55:56.274Z,8.53
2023-10-20T21:01:18.844Z,11.00
2023-10-20T21:06:41.072Z,20.07
2023-10-20T21:12:05.541Z,14.87
2023-10-20T21:17:27.917Z,11.70
2023-10-20T21:22:54.595Z,10.83
2023-10-20T21:28:17.050Z,15.03
2023-10-20T21:33:39.845Z,16.50
2023-10-20T21:39:02.328Z,13.07
2023-10-20T21:44:24.935Z,17.70
2023-10-20T21:49:47.297Z,15.70
2023-10-20T21:55:10.205Z,13.10
2023-10-20T22:00:32.896Z,15.97
2023-10-20T22:05:55.819Z,15.67
2023-10-20T22:11:18.373Z,15.37
2023-10-20T22:16:41.099Z,18.50
2023-10-20T22:22:03.996Z,17.70
2023-10-20T22:27:28.392Z,18.50
2023-10-20T22:32:51.124Z,17.70
2023-10-20T22:38:13.395Z,20.70
2023-10-20T22:43:36.022Z,21.23
2023-10-20T22:48:58.157Z,22.43
2023-10-20T22:54:20.734Z,21.70
2023-10-20T22:59:43.310Z,21.57
2023-10-20T23:05:07.997Z,20.07
2023-10-20T23:10:30.842Z,22.77
2023-10-20T23:15:53.562Z,19.57
2023-10-20T23:21:15.992Z,23.97
2023-10-20T23:26:38.885Z,22.30
2023-10-20T23:32:01.441Z,21.97
2023-10-20T23:37:25.688Z,25.17
2023-10-20T23:42:47.946Z,25.07
2023-10-20T23:48:10.239Z,21.73
2023-10-20T23:53:32.820Z,24.20
2023-10-20T23:58:55.026Z,27.70
